Time;durP1;ratioP1;P1;durP2;ratioP2;P2;SDS_P1;SDS_P2;PMS_P1;PMS_P2;Temp;Humidity;BMP_temperature;BMP_pressure;BME280_temperature;BME280_humidity;BME280_pressure;Samples;Min_cycle;Max_cycle;Signal;HPM_P1;HPM_P2
2023/01/22 00:01:37;;;;;;;;;;;;;;;5.96;67.72;103018.00;5074309;28;5806;-77
2023/01/22 00:04:04;;;;;;;;;;;;;;;5.97;67.31;103007.19;5072337;28;5173;-77
2023/01/22 00:06:30;;;;;;;;;;;;;;;5.92;67.90;103012.03;5071652;28;5623;-77
2023/01/22 00:09:02;;;;;;;;;;;;;;;6.02;67.54;103001.44;5076417;28;5937;-77
2023/01/22 00:11:28;;;;;;;;;;;;;;;5.99;67.39;103007.03;5072537;28;5685;-77
2023/01/22 00:13:55;;;;;;;;;;;;;;;6.03;67.24;103004.00;5075128;28;5697;-77
2023/01/22 00:16:21;;;;;;;;;;;;;;;6.04;67.12;103005.66;5072087;28;5473;-77
2023/01/22 00:18:48;;;;;;;;;;;;;;;5.90;67.63;102993.44;5074796;28;5461;-77
2023/01/22 00:21:15;;;;;;;;;;;;;;;5.96;67.42;102996.59;5072830;28;5850;-77
2023/01/22 00:23:41;;;;;;;;;;;;;;;6.00;67.40;102996.22;5072974;28;5609;-77
2023/01/22 00:26:09;;;;;;;;;;;;;;;5.99;67.50;102996.34;5072930;28;5946;-77
2023/01/22 00:28:36;;;;;;;;;;;;;;;6.04;67.30;103004.81;5073939;28;5758;-77
2023/01/22 00:31:03;;;;;;;;;;;;;;;5.98;67.62;103002.69;5078554;28;5689;-77
2023/01/22 00:33:29;;;;;;;;;;;;;;;5.98;67.77;103000.00;5096553;28;5401;-77
2023/01/22 00:35:56;;;;;;;;;;;;;;;5.99;67.62;102997.19;5093864;28;5841;-77
2023/01/22 00:38:22;;;;;;;;;;;;;;;5.96;67.69;103008.16;5094425;28;5816;-77
2023/01/22 00:40:49;;;;;;;;;;;;;;;5.93;67.61;103011.06;5076760;28;5729;-77
2023/01/22 00:43:16;;;;;;;;;;;;;;;5.97;67.70;103006.31;5076112;28;5296;-77
2023/01/22 00:45:42;;;;;;;;;;;;;;;6.09;67.22;103008.81;5092997;28;5608;-77
2023/01/22 00:48:09;;;;;;;;;;;;;;;6.03;67.37;103016.50;5077927;28;5421;-77
2023/01/22 00:50:35;;;;;;;;;;;;;;;6.02;67.52;103012.13;5093587;28;5308;-77
2023/01/22 00:53:02;;;;;;;;;;;;;;;6.06;67.24;103006.41;5093373;28;5335;-77
2023/01/22 00:55:29;;;;;;;;;;;;;;;6.04;67.30;103002.16;5092297;28;5831;-77
2023/01/22 00:57:55;;;;;;;;;;;;;;;5.90;67.93;102996.09;5078667;28;5337;-77
2023/01/22 01:00:22;;;;;;;;;;;;;;;6.01;67.39;103002.41;5092856;28;5348;-77
2023/01/22 01:05:33;;;;;;;;;;;;;;;6.00;67.41;103001.56;5094675;28;5822;-77
2023/01/22 01:07:59;;;;;;;;;;;;;;;6.09;67.23;102995.44;5094723;28;5329;-77
2023/01/22 01:10:26;;;;;;;;;;;;;;;6.01;67.50;102994.38;5092296;28;5759;-77
2023/01/22 01:12:52;;;;;;;;;;;;;;;6.06;67.32;102989.47;5093879;28;5645;-77
2023/01/22 01:15:19;;;;;;;;;;;;;;;5.99;67.45;102993.66;5094996;28;5507;-77
2023/01/22 01:17:46;;;;;;;;;;;;;;;5.99;67.43;102999.00;5094356;28;5825;-77
2023/01/22 01:20:12;;;;;;;;;;;;;;;5.97;67.64;102992.94;5092777;28;5401;-77
2023/01/22 01:22:39;;;;;;;;;;;;;;;5.98;67.60;102990.16;5092939;28;5381;-77
2023/01/22 01:25:05;;;;;;;;;;;;;;;5.98;67.58;103000.00;5092377;28;5671;-77
2023/01/22 01:27:32;;;;;;;;;;;;;;;6.03;67.45;102992.41;5091829;28;5844;-77
2023/01/22 01:29:58;;;;;;;;;;;;;;;6.01;67.51;103000.59;5093111;28;5312;-77
2023/01/22 01:32:25;;;;;;;;;;;;;;;6.04;67.38;103000.31;5093857;28;5930;-77
2023/01/22 01:34:52;;;;;;;;;;;;;;;6.02;67.29;102991.56;5076086;28;5679;-77
2023/01/22 01:37:18;;;;;;;;;;;;;;;5.96;67.67;102991.25;5091708;28;5667;-77
2023/01/22 01:39:46;;;;;;;;;;;;;;;5.61;67.51;102921.00;5091576;28;5760;-77
2023/01/22 01:42:13;;;;;;;;;;;;;;;6.00;67.64;102980.16;5092232;28;5346;-77
2023/01/22 01:44:39;;;;;;;;;;;;;;;6.05;67.24;102977.09;5076560;28;5395;-77
2023/01/22 01:47:06;;;;;;;;;;;;;;;5.96;67.65;102980.53;5093019;28;5702;-77
2023/01/22 01:49:32;;;;;;;;;;;;;;;6.09;67.47;102987.41;5091181;28;5341;-77
2023/01/22 01:51:59;;;;;;;;;;;;;;;6.05;67.50;103002.00;5095044;28;5298;-77
2023/01/22 01:54:25;;;;;;;;;;;;;;;6.04;67.45;103002.16;5092781;28;5417;-77
2023/01/22 01:56:52;;;;;;;;;;;;;;;6.08;67.43;102996.41;5090523;28;5293;-77
2023/01/22 01:59:18;;;;;;;;;;;;;;;5.91;67.82;102995.13;5090770;28;5248;-77
2023/01/22 02:01:45;;;;;;;;;;;;;;;6.04;67.56;103002.16;5093034;28;5734;-77
2023/01/22 02:04:12;;;;;;;;;;;;;;;6.14;67.09;102992.34;5092419;28;5936;-77
2023/01/22 02:06:39;;;;;;;;;;;;;;;6.08;67.71;102995.56;5075210;28;5464;-77
2023/01/22 02:09:06;;;;;;;;;;;;;;;6.04;67.47;102988.78;5094338;28;5380;-77
2023/01/22 02:11:32;;;;;;;;;;;;;;;5.99;67.48;102993.66;5092027;28;5432;-77
2023/01/22 02:13:59;;;;;;;;;;;;;;;6.01;67.65;102989.88;5092406;28;5741;-77
2023/01/22 02:16:25;;;;;;;;;;;;;;;6.05;67.41;102993.13;5093825;28;5299;-77
2023/01/22 02:18:52;;;;;;;;;;;;;;;6.02;67.55;102991.56;5074281;28;5703;-77
2023/01/22 02:21:19;;;;;;;;;;;;;;;6.07;67.47;102984.00;5077348;28;5648;-77
2023/01/22 02:23:45;;;;;;;;;;;;;;;6.02;67.55;102974.69;5092693;28;5378;-77
2023/01/22 02:26:12;;;;;;;;;;;;;;;6.00;67.65;102971.28;5091095;28;5669;-77
2023/01/22 02:28:38;;;;;;;;;;;;;;;5.99;67.68;102974.94;5091201;28;5760;-77
2023/01/22 02:31:05;;;;;;;;;;;;;;;6.04;67.72;102970.06;5094331;28;5602;-77
2023/01/22 02:33:31;;;;;;;;;;;;;;;6.08;67.55;102983.00;5089989;28;5600;-77
2023/01/22 02:35:58;;;;;;;;;;;;;;;6.10;67.22;102988.25;5073908;28;5533;-77
2023/01/22 02:38:24;;;;;;;;;;;;;;;6.10;67.27;102978.38;5075526;28;5459;-77
2023/01/22 02:40:51;;;;;;;;;;;;;;;6.11;67.16;102976.56;5091217;28;5789;-77
2023/01/22 02:43:17;;;;;;;;;;;;;;;6.04;67.68;102970.06;5072756;28;5836;-77
2023/01/22 02:45:44;;;;;;;;;;;;;;;6.05;67.44;102971.72;5073238;28;5344;-77
2023/01/22 02:48:11;;;;;;;;;;;;;;;6.06;67.54;102979.66;5091272;28;5801;-77
2023/01/22 02:50:37;;;;;;;;;;;;;;;6.03;67.79;102981.72;5091359;28;5874;-77
2023/01/22 02:53:04;;;;;;;;;;;;;;;5.96;67.95;102984.06;5092959;28;5356;-77
2023/01/22 02:55:30;;;;;;;;;;;;;;;6.10;66.60;102982.91;5074720;28;5748;-77
2023/01/22 02:57:57;;;;;;;;;;;;;;;6.08;67.56;102987.53;5092540;28;5358;-77
2023/01/22 03:00:23;;;;;;;;;;;;;;;6.11;67.39;102988.09;5089732;28;5401;-77
2023/01/22 03:02:50;;;;;;;;;;;;;;;6.17;66.96;102986.72;5074498;28;5885;-77
2023/01/22 03:05:17;;;;;;;;;;;;;;;6.08;67.44;102980.34;5092188;28;5311;-77
2023/01/22 03:07:43;;;;;;;;;;;;;;;6.09;67.13;102992.75;5092214;28;5505;-77
2023/01/22 03:10:10;;;;;;;;;;;;;;;6.17;66.80;102992.09;5075364;28;5455;-77
2023/01/22 03:23:33;;;;;;;;;;;;;;;6.03;67.57;103004.00;5080519;28;5924;-77
2023/01/22 03:25:59;;;;;;;;;;;;;;;6.14;67.31;103005.72;5083519;28;5429;-77
2023/01/22 03:28:26;;;;;;;;;;;;;;;6.06;67.15;102995.69;5095973;28;5338;-77
2023/01/22 03:30:52;;;;;;;;;;;;;;;6.09;67.42;102998.13;5096881;28;5887;-77
2023/01/22 03:33:19;;;;;;;;;;;;;;;6.10;67.45;102994.44;5096202;28;5424;-77
2023/01/22 03:35:45;;;;;;;;;;;;;;;6.12;67.04;102981.78;5093661;28;5803;-77
2023/01/22 03:38:12;;;;;;;;;;;;;;;6.08;67.35;102991.03;5077073;28;5279;-77
2023/01/22 03:40:38;;;;;;;;;;;;;;;6.04;67.43;102986.09;5095895;28;5316;-77
2023/01/22 03:43:05;;;;;;;;;;;;;;;6.03;67.48;102987.94;5079027;28;5888;-77
2023/01/22 03:45:32;;;;;;;;;;;;;;;6.09;67.30;102987.41;5092639;28;5509;-77
2023/01/22 03:47:58;;;;;;;;;;;;;;;6.08;67.40;102982.16;5078260;28;5390;-77
2023/01/22 03:50:25;;;;;;;;;;;;;;;6.09;67.44;102981.22;5075942;28;5280;-77
2023/01/22 03:52:51;;;;;;;;;;;;;;;6.05;67.59;102979.75;5080350;28;5900;-77
2023/01/22 03:55:18;;;;;;;;;;;;;;;6.01;67.50;102981.84;5078069;28;5727;-77
2023/01/22 03:57:44;;;;;;;;;;;;;;;5.94;67.84;102978.00;5093393;28;5334;-77
2023/01/22 04:00:12;;;;;;;;;;;;;;;5.96;68.01;102985.91;5095245;28;5880;-77
2023/01/22 04:02:39;;;;;;;;;;;;;;;6.07;67.40;102989.34;5092679;28;5608;-77
2023/01/22 04:05:05;;;;;;;;;;;;;;;5.96;67.86;102989.41;5095075;28;5893;-77
2023/01/22 04:07:32;;;;;;;;;;;;;;;6.07;67.45;102984.00;5078294;28;5330;-77
2023/01/22 04:09:58;;;;;;;;;;;;;;;6.06;67.46;102994.81;5078507;28;5851;-77
2023/01/22 04:12:25;;;;;;;;;;;;;;;6.00;67.67;102992.66;5094947;28;5287;-77
2023/01/22 04:15:17;;;;;;;;;;;;;;;6.08;67.57;102985.69;5095893;28;5344;-77
2023/01/22 04:18:08;;;;;;;;;;;;;;;6.00;67.64;102985.53;5097021;28;5862;-77
2023/01/22 04:21:00;;;;;;;;;;;;;;;6.10;67.37;102974.88;5096522;28;5757;-77
2023/01/22 04:23:52;;;;;;;;;;;;;;;6.01;67.72;102981.84;5094667;28;5236;-77
2023/01/22 04:26:45;;;;;;;;;;;;;;;6.04;67.68;102986.09;5095543;28;5487;-77
2023/01/22 04:29:36;;;;;;;;;;;;;;;6.10;67.69;102981.06;5094128;28;5792;-77
2023/01/22 04:32:28;;;;;;;;;;;;;;;6.12;67.17;102980.94;5095809;28;5868;-77
